Time;durP1;ratioP1;P1;durP2;ratioP2;P2;SDS_P1;SDS_P2;PMS_P1;PMS_P2;Temp;Humidity;BMP_temperature;BMP_pressure;BME280_temperature;BME280_humidity;BME280_pressure;Samples;Min_cycle;Max_cycle;Signal;HPM_P1;HPM_P2
2020/12/28 00:01:04;;;;;;;31.45;15.88;;;;;;;14.83;49.25;155016.28;1728955;82;21222;-79
2020/12/28 00:03:37;;;;;;;26.85;13.20;;;;;;;14.95;49.80;155046.52;1725248;82;21499;-81
2020/12/28 00:06:10;;;;;;;28.62;15.18;;;;;;;15.02;49.62;155064.97;1725441;82;21206;-81
2020/12/28 00:08:42;;;;;;;30.25;16.60;;;;;;;15.00;50.42;155061.00;1705927;84;21246;-80
2020/12/28 00:11:20;;;;;;;24.75;13.45;;;;;;;15.15;50.51;155099.20;1715766;83;22050;-80
2020/12/28 00:13:52;;;;;;;30.27;16.55;;;;;;;15.14;48.40;155097.86;1722167;82;21167;-81
2020/12/28 00:16:25;;;;;;;28.40;13.25;;;;;;;15.16;49.13;155103.13;1711179;82;21178;-81
2020/12/28 00:18:57;;;;;;;26.75;13.40;;;;;;;15.21;49.79;155116.31;1747475;81;21177;-80
2020/12/28 00:21:30;;;;;;;31.33;15.75;;;;;;;15.33;48.71;155147.95;1717073;81;21199;-79
2020/12/28 00:24:02;;;;;;;28.92;15.10;;;;;;;15.32;49.39;155143.97;1745980;82;21237;-79
2020/12/28 00:26:46;;;;;;;32.05;15.38;;;;;;;15.17;48.37;155105.77;1722094;83;21480;-79
2020/12/28 00:29:18;;;;;;;41.18;19.90;;;;;;;15.09;48.86;155084.72;1713198;83;21387;-80
2020/12/28 00:31:51;;;;;;;33.83;15.48;;;;;;;15.06;48.99;155075.47;1733062;81;21447;-80
2020/12/28 00:34:23;;;;;;;30.00;15.23;;;;;;;15.00;46.94;155059.70;1707471;83;21295;-80
2020/12/28 00:36:55;;;;;;;32.38;16.27;;;;;;;15.12;47.79;155091.30;1720934;82;22131;-80
2020/12/28 00:39:27;;;;;;;21.12;10.68;;;;;;;15.15;47.09;155100.50;1719723;82;21176;-80
2020/12/28 00:42:00;;;;;;;24.65;16.17;;;;;;;15.12;47.65;155092.58;1736099;82;21393;-81
2020/12/28 00:44:32;;;;;;;21.60;14.73;;;;;;;15.20;48.41;155113.69;1745269;82;21836;-81
2020/12/28 00:47:05;;;;;;;17.95;10.58;;;;;;;15.16;48.59;155101.84;1713097;83;21589;-82
2020/12/28 00:49:37;;;;;;;15.93;9.73;;;;;;;15.24;47.42;155122.88;1742152;82;21410;-82
2020/12/28 00:52:09;;;;;;;18.98;10.95;;;;;;;15.14;46.81;155096.56;1705014;84;21217;-81
2020/12/28 00:54:42;;;;;;;19.27;11.73;;;;;;;15.23;47.54;155120.25;1723696;81;21876;-81
2020/12/28 00:57:14;;;;;;;16.20;9.35;;;;;;;15.29;48.21;155136.06;1744178;82;21233;-81
2020/12/28 00:59:47;;;;;;;17.48;10.18;;;;;;;15.07;46.58;155079.45;1721186;82;21208;-81
2020/12/28 01:02:21;;;;;;;19.37;8.90;;;;;;;15.38;49.23;155162.44;1749097;82;21862;-81
2020/12/28 01:04:54;;;;;;;19.15;8.88;;;;;;;15.33;48.09;155146.62;1717835;83;21777;-81
2020/12/28 01:07:28;;;;;;;15.78;8.33;;;;;;;15.35;47.52;155153.19;1725338;82;21846;-83
2020/12/28 01:10:03;;;;;;;14.63;7.35;;;;;;;15.26;46.54;155129.50;1736651;82;21734;-82
2020/12/28 01:12:35;;;;;;;15.30;7.37;;;;;;;15.46;46.29;155183.50;1736916;82;21431;-82
2020/12/28 01:15:09;;;;;;;14.35;7.55;;;;;;;15.52;48.66;155199.27;1717711;83;21233;-79
2020/12/28 01:17:44;;;;;;;17.40;6.62;;;;;;;15.47;46.99;155186.13;1727831;82;21202;-81
2020/12/28 01:20:18;;;;;;;15.72;8.23;;;;;;;15.40;46.19;155167.66;1725671;82;21219;-81
2020/12/28 01:22:52;;;;;;;16.42;8.20;;;;;;;15.54;48.00;155204.53;1726175;82;21183;-80
2020/12/28 01:25:24;;;;;;;14.93;7.30;;;;;;;15.59;48.16;155217.73;1730207;82;21308;-81
2020/12/28 01:27:59;;;;;;;14.30;7.47;;;;;;;15.58;47.13;155215.09;1722910;82;21257;-81
2020/12/28 01:30:33;;;;;;;15.25;7.97;;;;;;;15.47;48.04;155186.13;1723944;82;21713;-82
2020/12/28 01:33:07;;;;;;;16.57;8.08;;;;;;;15.55;47.84;155207.17;1724433;82;21210;-83
2020/12/28 01:35:42;;;;;;;14.80;8.25;;;;;;;15.30;47.38;155140.05;1736703;82;21210;-82
2020/12/28 01:38:15;;;;;;;14.95;8.10;;;;;;;15.38;47.59;155162.44;1717900;83;21235;-82
2020/12/28 01:40:47;;;;;;;15.60;7.08;;;;;;;15.40;47.75;155167.66;1706919;83;21198;-82
2020/12/28 01:43:32;;;;;;;15.95;8.08;;;;;;;15.62;48.02;155224.30;1719597;82;21170;-81
2020/12/28 01:46:05;;;;;;;14.78;7.17;;;;;;;15.57;47.66;155211.11;1748773;82;22638;-82
2020/12/28 01:48:39;;;;;;;15.55;6.58;;;;;;;15.47;46.79;155184.78;1709178;83;21376;-82
2020/12/28 01:51:13;;;;;;;15.25;7.95;;;;;;;15.35;46.57;155151.89;1748850;81;21291;-82
2020/12/28 01:53:47;;;;;;;19.07;8.20;;;;;;;15.62;47.80;155225.59;1712363;82;21193;-81
2020/12/28 01:56:32;;;;;;;18.98;8.08;;;;;;;15.62;47.65;155224.30;1745616;82;21693;-82
2020/12/28 01:59:04;;;;;;;15.03;7.50;;;;;;;15.48;47.14;155187.42;1713114;82;21211;-80
2020/12/28 02:01:42;;;;;;;14.93;6.85;;;;;;;15.22;46.75;155117.61;1719828;83;21394;-80
2020/12/28 02:04:15;;;;;;;15.83;7.67;;;;;;;;;;1718006;83;21273;-80
2020/12/28 02:06:52;;;;;;;10.48;5.55;;;;;;;15.69;46.79;155242.72;1745024;82;21178;-80
2020/12/28 02:09:24;;;;;;;12.05;6.50;;;;;;;15.71;47.26;155247.98;1707222;83;21251;-80
2020/12/28 02:11:58;;;;;;;13.48;6.87;;;;;;;15.74;47.55;155257.19;1718492;83;21228;-80
2020/12/28 02:14:31;;;;;;;10.95;5.72;;;;;;;15.81;47.88;155275.66;1718898;83;22018;-79
2020/12/28 02:17:17;;;;;;;12.70;6.40;;;;;;;15.81;46.78;155275.66;1717324;83;21211;-79
2020/12/28 02:19:51;;;;;;;11.90;6.65;;;;;;;15.77;46.46;155263.81;1725496;82;21185;-80
2020/12/28 02:22:24;;;;;;;14.23;6.90;;;;;;;15.84;47.39;155283.58;1713655;83;21437;-80
2020/12/28 02:24:58;;;;;;;15.70;7.10;;;;;;;15.90;47.53;155298.06;1708943;83;21363;-80
2020/12/28 02:27:30;;;;;;;12.45;6.40;;;;;;;15.99;48.30;155321.77;1714767;83;21255;-80
2020/12/28 02:30:04;;;;;;;15.78;7.60;;;;;;;16.12;49.40;155356.02;1712728;82;21175;-80
2020/12/28 02:32:38;;;;;;;15.25;7.42;;;;;;;16.06;48.25;155341.53;1733601;81;21688;-80
2020/12/28 02:35:12;;;;;;;15.23;6.90;;;;;;;16.11;48.97;155354.67;1712747;81;21284;-79
2020/12/28 02:37:46;;;;;;;16.35;7.87;;;;;;;15.96;47.19;155315.19;1722233;81;21848;-79
2020/12/28 02:40:18;;;;;;;14.90;6.83;;;;;;;15.93;47.82;155307.27;1700413;82;21237;-81
2020/12/28 02:42:54;;;;;;;13.68;6.72;;;;;;;16.03;48.71;155333.61;1690413;84;21245;-80
2020/12/28 02:45:44;;;;;;;14.85;7.22;;;;;;;16.05;48.11;155338.89;1715135;81;21258;-80
2020/12/28 02:48:27;;;;;;;12.20;6.33;;;;;;;16.08;49.00;155346.81;1636270;86;21439;-81
2020/12/28 02:51:18;;;;;;;14.58;6.65;;;;;;;16.02;48.93;155329.69;1728223;81;21433;-81
2020/12/28 02:54:08;;;;;;;12.10;6.62;;;;;;;15.90;47.50;155298.06;1721444;81;21176;-80
2020/12/28 02:56:58;;;;;;;17.00;6.85;;;;;;;15.90;46.13;155299.36;1721318;81;21206;-80
2020/12/28 02:59:48;;;;;;;13.75;6.83;;;;;;;15.85;46.10;155286.22;1716148;82;21229;-79
2020/12/28 03:02:38;;;;;;;14.47;7.27;;;;;;;16.15;48.75;155365.22;1727615;81;21876;-80
2020/12/28 03:05:29;;;;;;;13.32;6.90;;;;;;;15.96;47.13;155313.84;1722781;81;21206;-81
2020/12/28 03:08:19;;;;;;;16.23;8.28;;;;;;;16.12;47.71;155357.31;1707518;82;21234;-80
2020/12/28 03:11:09;;;;;;;15.75;7.45;;;;;;;15.89;46.67;155295.42;1713726;81;21936;-81
2020/12/28 03:13:46;;;;;;;15.32;7.15;;;;;;;16.03;48.28;155332.31;1692918;81;21825;-81
2020/12/28 03:16:36;;;;;;;13.25;7.05;;;;;;;16.05;47.78;155338.89;1718754;81;21322;-81
2020/12/28 03:19:27;;;;;;;15.30;7.92;;;;;;;16.05;47.53;155337.53;1715293;81;21223;-81
2020/12/28 03:22:17;;;;;;;15.95;7.70;;;;;;;16.13;47.36;155359.95;1715131;82;21249;-81
2020/12/28 03:25:07;;;;;;;13.35;7.15;;;;;;;15.92;47.17;155303.28;1718496;81;21373;-80
2020/12/28 03:27:57;;;;;;;14.10;7.28;;;;;;;16.09;46.29;155349.39;1725579;81;21359;-80
2020/12/28 03:30:49;;;;;;;15.28;7.35;;;;;;;15.90;46.62;155299.36;1715876;81;21204;-79
2020/12/28 03:33:39;;;;;;;17.25;8.15;;;;;;;15.97;49.06;155316.48;1749684;81;21712;-80
2020/12/28 03:36:29;;;;;;;16.23;7.58;;;;;;;16.08;48.62;155346.81;1712410;82;21247;-80
2020/12/28 03:39:20;;;;;;;17.67;8.03;;;;;;;15.97;47.19;155317.78;1739047;81;21309;-80
2020/12/28 03:42:10;;;;;;;18.93;8.17;;;;;;;15.81;46.25;155274.31;1742618;82;21686;-81
2020/12/28 03:45:00;;;;;;;14.80;7.22;;;;;;;15.98;48.74;155320.41;1744325;80;21254;-80
2020/12/28 03:47:50;;;;;;;15.88;7.83;;;;;;;15.86;47.19;155288.81;1718079;83;21167;-81
2020/12/28 03:50:40;;;;;;;14.98;8.05;;;;;;;15.95;47.96;155312.56;1720053;83;21425;-80
2020/12/28 03:53:30;;;;;;;17.30;7.78;;;;;;;16.00;48.97;155324.41;1728372;82;21706;-83
2020/12/28 03:56:21;;;;;;;14.60;7.22;;;;;;;15.87;48.32;155291.44;1726460;82;21363;-82
2020/12/28 03:58:57;;;;;;;18.50;7.87;;;;;;;16.08;48.09;155345.45;1694101;82;21341;-81
2020/12/28 04:01:48;;;;;;;15.27;7.80;;;;;;;16.11;47.75;155354.67;1726678;82;21354;-84
2020/12/28 04:04:27;;;;;;;18.27;8.60;;;;;;;16.17;47.83;155370.50;1697350;83;21460;-82
2020/12/28 04:07:09;;;;;;;17.07;8.68;;;;;;;16.05;47.88;155338.89;1611401;88;21269;-84
2020/12/28 04:09:56;;;;;;;15.60;8.33;;;;;;;16.23;48.45;155386.28;1660603;83;21242;-83
2020/12/28 04:12:30;;;;;;;18.98;7.97;;;;;;;16.21;48.84;155381.02;1710579;83;21243;-83
2020/12/28 04:15:02;;;;;;;17.45;8.25;;;;;;;16.23;49.02;155386.28;1714125;83;21318;-82
2020/12/28 04:17:35;;;;;;;20.52;8.90;;;;;;;16.18;49.21;155371.80;1722587;82;21375;-81
2020/12/28 04:20:07;;;;;;;16.02;8.90;;;;;;;16.33;49.16;155412.69;1745068;81;21353;-83
2020/12/28 04:22:40;;;;;;;15.60;7.17;;;;;;;16.28;48.49;155400.78;1743406;82;21294;-83
2020/12/28 04:25:16;;;;;;;16.57;8.35;;;;;;;16.27;48.06;155396.84;1721790;83;21318;-82
2020/12/28 04:27:48;;;;;;;17.35;7.85;;;;;;;16.28;48.89;155399.48;1708719;82;21376;-81
2020/12/28 04:30:21;;;;;;;17.80;8.88;;;;;;;15.73;47.38;155254.61;1710927;83;21411;-83
2020/12/28 04:32:53;;;;;;;17.30;8.75;;;;;;;16.05;49.03;155338.89;1739974;81;21770;-83
2020/12/28 04:35:26;;;;;;;19.25;8.90;;;;;;;16.05;48.90;155337.53;1736258;81;21210;-87
2020/12/28 04:37:58;;;;;;;21.40;9.10;;;;;;;16.15;50.61;155363.88;1718670;83;21678;-75
2020/12/28 04:40:31;;;;;;;20.52;8.88;;;;;;;16.25;48.55;155390.28;1696448;84;21352;-75
2020/12/28 04:43:03;;;;;;;17.15;8.83;;;;;;;16.17;47.42;155369.16;1683814;84;21249;-75
2020/12/28 04:45:36;;;;;;;16.77;8.60;;;;;;;16.34;48.89;155416.67;1717365;83;21248;-75
2020/12/28 04:48:09;;;;;;;17.30;8.45;;;;;;;20.61;43.98;156548.09;1727264;82;21197;-75
2020/12/28 04:50:42;;;;;;;16.55;8.23;;;;;;;20.39;42.30;156489.91;1730148;82;21235;-71
2020/12/28 04:53:15;;;;;;;17.77;8.85;;;;;;;20.09;42.98;156410.62;1688975;83;21895;-75
2020/12/28 04:55:47;;;;;;;16.23;7.90;;;;;;;20.20;43.54;156439.69;1693278;84;21215;-76
2020/12/28 04:58:19;;;;;;;18.05;8.33;;;;;;;19.98;42.27;156381.53;1703724;82;21867;-77
2020/12/28 05:01:00;;;;;;;19.20;7.62;;;;;;;20.00;43.12;156386.84;1722989;81;21229;-82
2020/12/28 05:03:32;;;;;;;19.55;8.80;;;;;;;20.07;43.48;156405.31;1713683;82;21157;-80
2020/12/28 05:06:04;;;;;;;16.23;8.35;;;;;;;19.67;41.47;156298.22;1688866;83;21226;-73
2020/12/28 05:08:38;;;;;;;18.45;8.43;;;;;;;19.48;44.35;156248.03;1715866;83;21321;-75
2020/12/28 05:11:12;;;;;;;19.17;8.30;;;;;;;19.45;43.93;156240.09;1696925;81;21206;-76
2020/12/28 05:13:49;;;;;;;18.12;8.50;;;;;;;19.55;43.74;156266.50;1728089;82;21325;-78
2020/12/28 05:16:23;;;;;;;15.68;8.50;;;;;;;19.30;42.44;156200.44;1727101;82;21697;-78
2020/12/28 05:18:56;;;;;;;16.97;8.10;;;;;;;19.20;42.38;156175.39;1726864;82;21206;-78
2020/12/28 05:21:29;;;;;;;14.93;7.92;;;;;;;18.80;42.42;156068.38;1690462;82;21246;-76
2020/12/28 05:24:13;;;;;;;15.93;8.25;;;;;;;18.88;43.95;156088.13;1721724;81;21179;-73
2020/12/28 05:26:46;;;;;;;15.63;7.22;;;;;;;18.87;44.62;156085.48;1710900;82;21978;-73
2020/12/28 05:29:21;;;;;;;16.27;7.55;;;;;;;18.63;43.31;156022.16;1723258;82;21381;-75
2020/12/28 05:31:54;;;;;;;18.73;8.40;;;;;;;18.56;44.21;156005.00;1694132;83;21254;-75
2020/12/28 05:34:28;;;;;;;15.45;7.62;;;;;;;18.53;44.89;155995.70;1719036;81;21615;-74
2020/12/28 05:37:00;;;;;;;13.88;7.05;;;;;;;18.60;44.44;156015.52;1750537;81;21228;-74
2020/12/28 05:39:33;;;;;;;15.85;7.65;;;;;;;18.54;43.54;155999.70;1724168;81;21299;-73
2020/12/28 05:42:14;;;;;;;13.18;6.42;;;;;;;18.56;44.38;156005.00;1713820;81;21308;-76
2020/12/28 05:44:44;;;;;;;12.95;6.67;;;;;;;18.63;45.44;156023.45;1739997;82;21317;-75
2020/12/28 05:47:18;;;;;;;16.85;7.92;;;;;;;18.71;45.03;156043.27;1724460;83;21339;-76
2020/12/28 05:49:50;;;;;;;14.68;7.10;;;;;;;18.75;44.51;156053.84;1740356;82;21166;-76
2020/12/28 05:52:22;;;;;;;14.47;8.28;;;;;;;18.61;43.17;156018.16;1756101;82;21185;-76
2020/12/28 05:54:54;;;;;;;15.23;8.15;;;;;;;18.78;44.85;156061.72;1748942;82;21269;-76
2020/12/28 05:57:27;;;;;;;17.57;8.15;;;;;;;18.82;44.22;156072.31;1751818;81;21181;-76
2020/12/28 06:00:01;;;;;;;15.30;8.63;;;;;;;18.78;44.26;156063.08;1721526;82;21387;-76
2020/12/28 06:02:35;;;;;;;17.10;7.65;;;;;;;18.73;44.30;156048.56;1749655;82;21288;-74
2020/12/28 06:05:15;;;;;;;16.00;7.75;;;;;;;18.52;44.60;155993.06;1760694;81;21256;-75
2020/12/28 06:07:47;;;;;;;18.40;8.08;;;;;;;18.49;44.18;155985.19;1754193;81;21197;-77
2020/12/28 06:10:21;;;;;;;17.48;8.30;;;;;;;18.57;45.44;156006.28;1699983;82;21178;-80
2020/12/28 06:12:58;;;;;;;14.38;7.78;;;;;;;18.43;44.57;155969.31;1728958;81;21258;-83
2020/12/28 06:15:30;;;;;;;18.50;8.23;;;;;;;18.28;44.27;155929.75;1756330;81;21352;-79
2020/12/28 06:18:02;;;;;;;17.82;7.47;;;;;;;18.35;43.98;155949.52;1748853;82;21218;-84
2020/12/28 06:20:35;;;;;;;17.35;7.67;;;;;;;18.31;44.27;155938.98;1751599;82;21840;-81
2020/12/28 06:23:07;;;;;;;20.32;8.93;;;;;;;18.44;46.86;155973.31;1754308;81;21743;-82
2020/12/28 06:25:40;;;;;;;19.82;11.22;;;;;;;18.49;45.33;155985.19;1757388;81;21332;-83
2020/12/28 06:28:14;;;;;;;16.25;8.18;;;;;;;18.21;44.13;155912.55;1727588;81;21953;-83
2020/12/28 06:30:46;;;;;;;16.35;9.90;;;;;;;18.34;45.55;155945.56;1737835;82;21221;-84
2020/12/28 06:33:19;;;;;;;19.02;10.88;;;;;;;18.43;46.40;155970.66;1729215;82;21202;-82
2020/12/28 06:35:51;;;;;;;20.50;10.00;;;;;;;18.43;45.94;155969.31;1737146;82;21328;-83
2020/12/28 06:38:28;;;;;;;16.80;8.45;;;;;;;18.46;45.76;155977.25;1718415;82;21363;-80
2020/12/28 06:41:00;;;;;;;15.50;8.85;;;;;;;18.40;45.82;155962.73;1744747;82;21225;-82
2020/12/28 06:43:40;;;;;;;21.12;8.73;;;;;;;18.44;46.67;155973.31;1753758;82;21242;-79
2020/12/28 06:46:12;;;;;;;19.30;9.18;;;;;;;18.54;45.62;155999.70;1753560;82;21272;-79
2020/12/28 06:48:45;;;;;;;17.48;8.35;;;;;;;18.55;45.90;156001.00;1725503;83;21381;-80
2020/12/28 06:51:18;;;;;;;16.97;8.45;;;;;;;18.55;45.72;156001.00;1724535;83;21320;-75
2020/12/28 06:53:55;;;;;;;19.25;8.50;;;;;;;18.47;45.54;155981.19;1741713;82;21173;-75
2020/12/28 06:56:28;;;;;;;15.78;8.23;;;;;;;18.41;45.38;155964.03;1746982;82;21827;-75
2020/12/28 06:59:01;;;;;;;18.92;7.92;;;;;;;18.47;46.50;155979.89;1721906;83;22342;-77
2020/12/28 07:01:34;;;;;;;23.05;9.25;;;;;;;18.53;45.64;155995.70;1735037;81;21728;-76
2020/12/28 07:04:06;;;;;;;20.10;9.18;;;;;;;18.56;46.04;156005.00;1755405;81;21214;-76
2020/12/28 07:06:39;;;;;;;19.32;8.28;;;;;;;18.63;46.91;156022.16;1746834;82;21193;-76
2020/12/28 07:09:11;;;;;;;19.40;9.03;;;;;;;18.86;45.94;156082.89;1748805;82;21764;-76
2020/12/28 07:11:44;;;;;;;18.90;9.65;;;;;;;18.76;45.91;156056.44;1725998;83;21191;-76
2020/12/28 07:14:20;;;;;;;18.92;10.63;;;;;;;18.69;45.79;156039.27;1755034;82;21767;-76
2020/12/28 07:16:56;;;;;;;17.32;9.15;;;;;;;18.56;45.03;156003.64;1748535;82;21313;-76
2020/12/28 07:19:28;;;;;;;20.97;10.30;;;;;;;18.57;46.13;156006.28;1755858;82;21225;-75
2020/12/28 07:22:00;;;;;;;18.77;9.73;;;;;;;18.40;44.32;155962.73;1748528;82;21237;-75
2020/12/28 07:24:33;;;;;;;19.70;10.15;;;;;;;18.39;44.12;155958.78;1725867;83;21323;-75
2020/12/28 07:27:06;;;;;;;20.02;10.32;;;;;;;18.42;43.85;155966.67;1724571;83;21340;-75
2020/12/28 07:29:39;;;;;;;21.97;11.30;;;;;;;18.44;46.17;155971.95;1717657;82;21371;-76
2020/12/28 07:32:11;;;;;;;17.32;9.83;;;;;;;18.46;45.57;155977.25;1726053;83;21178;-76
2020/12/28 07:34:43;;;;;;;19.42;9.18;;;;;;;18.40;44.63;155961.44;1732787;82;21222;-76
2020/12/28 07:37:16;;;;;;;16.67;8.40;;;;;;;18.25;43.67;155923.12;1715533;83;21701;-76
2020/12/28 07:39:49;;;;;;;21.10;9.65;;;;;;;18.35;45.40;155948.22;1743928;82;21804;-76
2020/12/28 07:42:23;;;;;;;21.42;9.40;;;;;;;18.35;44.37;155948.22;1719651;82;21426;-75
2020/12/28 07:45:01;;;;;;;21.20;10.50;;;;;;;18.35;45.19;155948.22;1731257;82;21301;-75
2020/12/28 07:47:49;;;;;;;20.72;9.83;;;;;;;18.31;44.71;155937.64;1743903;82;21375;-75
2020/12/28 07:50:22;;;;;;;18.85;8.98;;;;;;;18.45;44.81;155975.95;1713642;83;21391;-75
2020/12/28 07:53:14;;;;;;;18.02;9.45;;;;;;;18.41;45.72;155964.03;1747401;82;21317;-76
2020/12/28 07:56:06;;;;;;;21.73;9.23;;;;;;;18.28;45.66;155931.05;1713421;84;21344;-75
2020/12/28 07:58:46;;;;;;;19.65;9.45;;;;;;;18.21;44.87;155912.55;1713754;84;21365;-76
2020/12/28 08:01:41;;;;;;;19.85;10.55;;;;;;;18.13;44.96;155891.39;1715192;82;21341;-76
2020/12/28 08:04:16;;;;;;;17.27;9.15;;;;;;;18.07;46.30;155874.23;1737973;82;21407;-77
2020/12/28 08:06:48;;;;;;;20.23;10.13;;;;;;;17.95;44.24;155842.56;1748751;82;21231;-77
2020/12/28 08:09:24;;;;;;;18.70;9.80;;;;;;;18.00;44.83;155854.44;1748939;82;21180;-77
2020/12/28 08:12:00;;;;;;;23.15;11.40;;;;;;;17.93;45.13;155837.33;1693094;83;21295;-76
2020/12/28 08:14:33;;;;;;;25.15;12.70;;;;;;;17.97;44.57;155846.56;1718666;83;21726;-77
2020/12/28 08:17:10;;;;;;;31.45;15.30;;;;;;;17.97;45.22;155847.84;1718619;83;21237;-76
2020/12/28 08:19:44;;;;;;;27.25;11.97;;;;;;;17.95;46.14;155842.56;1718715;83;21395;-75
2020/12/28 08:22:23;;;;;;;29.55;14.33;;;;;;;18.00;45.75;155855.78;1719329;82;21183;-76
2020/12/28 08:25:06;;;;;;;28.40;13.85;;;;;;;17.98;45.50;155850.50;1732480;82;21407;-76
2020/12/28 08:27:39;;;;;;;19.02;9.50;;;;;;;18.18;44.63;155903.27;1722218;82;21379;-75
2020/12/28 08:30:11;;;;;;;20.48;10.00;;;;;;;18.25;45.82;155923.12;1721250;83;21801;-76
2020/12/28 08:32:43;;;;;;;15.28;8.10;;;;;;;18.19;46.29;155907.25;1718363;82;21139;-76
2020/12/28 08:35:16;;;;;;;14.30;7.42;;;;;;;18.05;45.68;155867.66;1725953;80;21247;-76
2020/12/28 08:37:50;;;;;;;17.00;8.78;;;;;;;18.10;45.93;155882.17;1726867;82;21226;-76
2020/12/28 08:40:24;;;;;;;17.73;7.80;;;;;;;18.12;46.12;155888.75;1697244;84;21241;-76
2020/12/28 08:42:59;;;;;;;18.15;8.60;;;;;;;18.06;46.20;155871.59;1696226;83;21395;-76
2020/12/28 08:45:31;;;;;;;14.58;8.08;;;;;;;18.04;45.83;155865.00;1689447;84;21265;-82
2020/12/28 08:48:04;;;;;;;21.50;9.58;;;;;;;17.98;46.46;155849.20;1720145;82;21356;-80
2020/12/28 08:50:37;;;;;;;19.35;8.65;;;;;;;17.88;44.92;155822.81;1721026;82;21363;-80
2020/12/28 08:53:11;;;;;;;16.87;8.63;;;;;;;18.05;45.68;155867.66;1727819;82;21376;-79
2020/12/28 08:55:43;;;;;;;14.43;8.13;;;;;;;18.10;45.50;155882.17;1725749;82;21436;-82
2020/12/28 08:58:20;;;;;;;20.65;9.30;;;;;;;18.23;45.67;155916.53;1715370;83;21283;-81
2020/12/28 09:00:53;;;;;;;17.40;8.35;;;;;;;18.11;45.77;155884.81;1722432;82;21324;-83
2020/12/28 09:03:26;;;;;;;15.13;8.30;;;;;;;18.11;46.35;155884.81;1689673;84;21861;-79
2020/12/28 09:06:00;;;;;;;14.73;7.37;;;;;;;18.07;46.03;155874.23;1721264;83;21314;-83
2020/12/28 09:08:33;;;;;;;16.57;7.92;;;;;;;18.04;46.28;155866.36;1699732;83;21259;-76
2020/12/28 09:11:07;;;;;;;14.43;7.00;;;;;;;18.19;46.56;155905.91;1721828;82;21828;-76
2020/12/28 09:13:52;;;;;;;11.85;6.50;;;;;;;18.15;46.91;155896.69;1723020;82;22034;-77
2020/12/28 09:16:43;;;;;;;14.60;7.75;;;;;;;18.12;46.36;155887.45;1721846;82;21862;-79
2020/12/28 09:19:26;;;;;;;14.20;7.75;;;;;;;18.33;45.83;155944.28;1690736;84;21221;-77
2020/12/28 09:22:01;;;;;;;14.55;6.60;;;;;;;18.19;46.86;155907.25;1718720;83;21392;-79
2020/12/28 09:24:35;;;;;;;13.20;6.72;;;;;;;18.26;46.26;155924.47;1693793;83;21257;-80
2020/12/28 09:27:18;;;;;;;12.47;6.47;;;;;;;18.19;45.51;155905.91;1717162;83;21210;-76
2020/12/28 09:30:06;;;;;;;15.88;7.40;;;;;;;18.19;46.50;155907.25;1716911;83;21430;-77
2020/12/28 09:32:36;;;;;;;14.65;7.47;;;;;;;18.30;45.79;155936.34;1719395;82;21709;-74
2020/12/28 09:35:09;;;;;;;12.88;7.10;;;;;;;18.39;46.93;155958.78;1719083;82;21780;-73
2020/12/28 09:37:49;;;;;;;15.25;7.35;;;;;;;18.28;45.57;155931.05;1723530;82;21297;-73
2020/12/28 09:40:23;;;;;;;15.15;7.60;;;;;;;18.20;45.28;155908.55;1738553;81;21907;-76
2020/12/28 09:42:58;;;;;;;12.00;6.47;;;;;;;18.16;46.35;155898.03;1712251;83;21341;-76
2020/12/28 09:45:37;;;;;;;13.00;6.70;;;;;;;18.05;45.74;155867.66;1736996;80;21749;-77
2020/12/28 09:48:09;;;;;;;15.78;7.03;;;;;;;18.08;45.77;155875.58;1735044;80;21821;-76
2020/12/28 09:50:44;;;;;;;13.75;8.08;;;;;;;18.10;45.92;155882.17;1736306;82;21309;-75
2020/12/28 09:56:55;;;;;;;14.35;6.97;;;;;;;18.26;46.22;155925.77;1740730;81;21717;-76
2020/12/28 09:59:27;;;;;;;12.68;6.72;;;;;;;18.14;45.11;155892.73;1745001;81;21219;-76
2020/12/28 10:02:00;;;;;;;18.50;7.45;;;;;;;18.07;46.88;155874.23;1753078;81;21385;-76
2020/12/28 10:04:34;;;;;;;14.18;7.37;;;;;;;18.07;46.30;155872.94;1752031;81;21288;-76
2020/12/28 10:07:07;;;;;;;14.78;6.67;;;;;;;18.06;44.84;155871.59;1735138;81;21376;-76
2020/12/28 10:09:40;;;;;;;14.65;7.05;;;;;;;18.10;45.71;155880.87;1735483;81;21280;-76
2020/12/28 10:12:15;;;;;;;12.93;6.53;;;;;;;18.04;45.29;155865.00;1743519;81;21190;-76
2020/12/28 10:14:48;;;;;;;11.75;6.42;;;;;;;18.27;47.04;155927.11;1745298;81;21904;-80
2020/12/28 10:17:21;;;;;;;14.13;7.30;;;;;;;18.32;46.88;155940.28;1743769;81;21919;-78
2020/12/28 10:19:54;;;;;;;15.38;7.55;;;;;;;18.25;46.41;155923.12;1738221;81;21166;-78
2020/12/28 10:22:30;;;;;;;11.50;6.10;;;;;;;18.29;47.02;155933.69;1740084;81;21226;-80
2020/12/28 10:25:03;;;;;;;14.50;7.45;;;;;;;18.35;47.13;155948.22;1742800;81;21213;-77
2020/12/28 10:27:36;;;;;;;11.95;6.30;;;;;;;18.18;45.52;155903.27;1734976;81;22211;-77
2020/12/28 10:30:10;;;;;;;16.37;8.25;;;;;;;18.28;46.21;155931.05;1733394;81;21429;-77
2020/12/28 10:32:42;;;;;;;13.62;6.30;;;;;;;18.23;45.58;155917.83;1735327;80;21644;-80
2020/12/28 10:35:15;;;;;;;12.40;6.78;;;;;;;18.24;46.41;155920.48;1752324;81;21278;-78
2020/12/28 10:37:47;;;;;;;14.40;8.20;;;;;;;18.29;47.91;155932.34;1742687;81;21804;-78
2020/12/28 10:40:20;;;;;;;14.87;6.87;;;;;;;18.23;45.66;155916.53;1741320;81;21242;-79
2020/12/28 10:42:54;;;;;;;18.45;8.08;;;;;;;18.24;46.61;155920.48;1738979;81;21337;-78
2020/12/28 10:45:28;;;;;;;15.58;7.92;;;;;;;18.11;45.54;155886.11;1734218;81;22030;-78
2020/12/28 10:48:01;;;;;;;13.55;6.85;;;;;;;18.01;45.75;155857.08;1745424;81;21285;-77
2020/12/28 10:50:33;;;;;;;17.65;7.40;;;;;;;18.01;45.73;155858.42;1742475;81;21361;-77
2020/12/28 10:53:06;;;;;;;15.60;7.58;;;;;;;18.02;46.58;155859.72;1743171;81;21356;-75
2020/12/28 10:55:38;;;;;;;12.58;7.15;;;;;;;18.04;47.06;155865.00;1743803;81;22236;-76
2020/12/28 10:58:13;;;;;;;17.45;7.53;;;;;;;18.07;47.15;155874.23;1741648;81;21309;-76
2020/12/28 11:00:45;;;;;;;16.17;7.28;;;;;;;18.14;46.88;155892.73;1734504;81;21417;-76
2020/12/28 11:03:19;;;;;;;17.05;7.67;;;;;;;18.17;47.21;155900.63;1733377;82;21412;-77
2020/12/28 11:05:51;;;;;;;16.35;8.40;;;;;;;18.24;48.07;155920.48;1733025;82;21856;-76
2020/12/28 11:08:24;;;;;;;15.85;8.68;;;;;;;18.28;46.41;155931.05;1711317;82;21516;-77
2020/12/28 11:10:58;;;;;;;15.13;7.55;;;;;;;18.29;47.40;155933.69;1745732;82;21376;-78
2020/12/28 11:13:30;;;;;;;16.30;8.48;;;;;;;18.30;47.62;155935.00;1741037;82;21811;-78
2020/12/28 11:16:03;;;;;;;20.50;9.30;;;;;;;18.28;47.49;155929.75;1742640;82;21421;-83
2020/12/28 11:18:38;;;;;;;20.57;8.90;;;;;;;18.13;45.52;155890.09;1733025;81;21378;-77
2020/12/28 11:21:10;;;;;;;14.43;8.18;;;;;;;18.11;46.82;155886.11;1733654;82;21222;-75
2020/12/28 11:24:02;;;;;;;21.77;9.53;;;;;;;18.00;46.73;155855.78;1705495;81;21262;-74
2020/12/28 11:26:35;;;;;;;16.93;8.53;;;;;;;18.02;45.95;155861.08;1743659;82;21234;-78
2020/12/28 11:29:09;;;;;;;18.00;9.65;;;;;;;18.06;46.99;155870.30;1734198;81;21365;-78
2020/12/28 11:31:43;;;;;;;17.82;7.85;;;;;;;17.80;46.09;155803.02;1732157;81;21321;-78
2020/12/28 11:34:16;;;;;;;18.57;8.60;;;;;;;17.93;46.61;155835.98;1733221;81;21380;-78
2020/12/28 11:36:49;;;;;;;17.35;8.18;;;;;;;18.07;47.71;155872.94;1731913;82;21376;-76
2020/12/28 11:39:22;;;;;;;18.25;9.20;;;;;;;18.11;47.93;155886.11;1732294;82;21356;-77
2020/12/28 11:41:56;;;;;;;21.87;9.60;;;;;;;17.99;46.70;155853.14;1732285;82;21376;-78
2020/12/28 11:44:31;;;;;;;17.87;9.03;;;;;;;17.95;47.21;155841.28;1741103;81;21351;-76
2020/12/28 11:47:05;;;;;;;19.35;8.88;;;;;;;18.01;46.51;155858.42;1734550;82;21296;-82
2020/12/28 11:49:37;;;;;;;21.45;9.55;;;;;;;18.06;47.31;155871.59;1732022;81;21163;-79
2020/12/28 11:52:12;;;;;;;22.73;9.70;;;;;;;18.13;46.59;155890.09;1741319;81;21204;-80
2020/12/28 11:54:47;;;;;;;19.50;9.40;;;;;;;18.21;46.95;155911.20;1742643;81;21722;-79
2020/12/28 11:57:19;;;;;;;21.33;10.82;;;;;;;18.12;46.46;155888.75;1743155;81;21246;-79
2020/12/28 11:59:51;;;;;;;21.55;9.65;;;;;;;18.19;47.01;155907.25;1735623;82;21324;-76